createdAt,value
2022-12-23T00:01:02.931Z,1.15
2022-12-23T00:06:09.318Z,1.20
2022-12-23T00:11:16.470Z,1.18
2022-12-23T00:16:18.615Z,1.14
2022-12-23T00:21:20.802Z,1.02
2022-12-23T00:26:24.299Z,0.90
2022-12-23T00:31:26.437Z,0.96
2022-12-23T00:36:29.709Z,1.01
2022-12-23T00:41:31.695Z,1.13
2022-12-23T00:46:33.587Z,1.04
2022-12-23T00:51:35.542Z,1.09
2022-12-23T00:56:37.531Z,0.96
2022-12-23T01:01:39.592Z,0.98
2022-12-23T01:06:42.827Z,0.90
2022-12-23T01:11:44.740Z,0.83
2022-12-23T01:16:46.734Z,0.82
2022-12-23T01:21:48.531Z,0.76
2022-12-23T01:26:50.459Z,0.87
2022-12-23T01:31:52.365Z,0.91
2022-12-23T01:36:54.279Z,0.91
2022-12-23T01:41:56.175Z,0.97
2022-12-23T01:46:58.078Z,0.93
2022-12-23T01:52:00.002Z,0.82
2022-12-23T01:57:02.009Z,0.90
2022-12-23T02:02:04.058Z,0.90
2022-12-23T02:07:24.512Z,0.83
2022-12-23T02:12:46.283Z,0.79
2022-12-23T02:17:56.677Z,0.82
2022-12-23T02:23:13.483Z,0.73
2022-12-23T02:28:39.863Z,0.76
2022-12-23T02:34:25.229Z,0.84
2022-12-23T02:39:40.331Z,0.71
2022-12-23T02:45:05.032Z,0.77
2022-12-23T02:50:10.680Z,0.71
2022-12-23T02:55:18.492Z,0.77
2022-12-23T03:00:21.008Z,0.80
2022-12-23T03:05:43.757Z,0.89
2022-12-23T03:10:56.197Z,0.77
2022-12-23T03:16:11.283Z,0.89
2022-12-23T03:21:42.481Z,0.87
2022-12-23T03:27:05.785Z,0.84
2022-12-23T03:32:07.590Z,0.78
2022-12-23T03:37:10.286Z,0.79
2022-12-23T03:42:14.457Z,0.66
2022-12-23T03:47:26.431Z,0.71
2022-12-23T03:52:31.365Z,0.73
2022-12-23T03:57:53.975Z,0.77
2022-12-23T04:03:14.175Z,0.90
2022-12-23T04:08:45.426Z,0.77
2022-12-23T04:13:48.182Z,0.97
2022-12-23T04:18:49.796Z,0.81
2022-12-23T04:23:51.628Z,0.95
2022-12-23T04:28:53.455Z,0.98
2022-12-23T04:33:55.304Z,0.99
2022-12-23T04:38:57.113Z,1.20
2022-12-23T04:43:58.863Z,1.09
2022-12-23T04:49:00.794Z,1.08
2022-12-23T04:54:02.651Z,1.11
2022-12-23T04:59:04.470Z,1.02
2022-12-23T05:04:06.401Z,1.01
2022-12-23T05:09:08.249Z,0.84
2022-12-23T05:14:10.896Z,0.83
2022-12-23T05:19:12.521Z,0.72
2022-12-23T05:24:14.598Z,0.74
2022-12-23T05:29:16.683Z,0.82
2022-12-23T05:34:18.576Z,0.79
2022-12-23T05:39:20.325Z,0.86
2022-12-23T05:44:22.168Z,0.88
2022-12-23T05:49:23.992Z,0.81
2022-12-23T05:54:25.831Z,0.81
2022-12-23T05:59:30.951Z,0.84
2022-12-23T06:04:33.462Z,0.93
2022-12-23T06:09:35.240Z,0.93
2022-12-23T06:14:37.058Z,0.94
2022-12-23T06:19:38.902Z,0.97
2022-12-23T06:24:40.753Z,0.93
2022-12-23T06:29:42.545Z,0.96
2022-12-23T06:34:44.369Z,1.02
2022-12-23T06:39:46.142Z,0.95
2022-12-23T06:44:47.926Z,0.97
2022-12-23T06:49:49.695Z,0.99
2022-12-23T06:54:51.572Z,1.08
2022-12-23T06:59:53.376Z,1.08
2022-12-23T07:04:55.127Z,1.05
2022-12-23T07:09:56.966Z,1.12
2022-12-23T07:14:58.762Z,1.10
2022-12-23T07:20:00.547Z,1.16
2022-12-23T07:25:02.410Z,1.07
2022-12-23T07:30:05.906Z,1.17
2022-12-23T07:35:08.013Z,1.10
2022-12-23T07:40:10.422Z,1.11
2022-12-23T07:45:12.261Z,1.12
2022-12-23T07:50:14.110Z,1.19
2022-12-23T07:55:16.054Z,1.25
2022-12-23T08:00:18.236Z,1.18
2022-12-23T08:05:20.250Z,1.17
2022-12-23T08:10:22.272Z,1.24
2022-12-23T08:15:24.027Z,1.34
2022-12-23T08:20:25.821Z,1.42
2022-12-23T08:25:27.690Z,1.34
2022-12-23T08:30:29.599Z,1.44
2022-12-23T08:35:31.403Z,1.51
2022-12-23T08:40:33.232Z,1.58
2022-12-23T08:45:38.550Z,1.52
2022-12-23T08:50:41.368Z,1.58
2022-12-23T08:55:46.983Z,1.55
2022-12-23T09:00:48.862Z,1.42
2022-12-23T09:05:50.695Z,1.48
2022-12-23T09:10:52.528Z,1.46
2022-12-23T09:15:54.384Z,1.42
2022-12-23T09:21:00.256Z,1.40
2022-12-23T09:26:02.110Z,1.46
2022-12-23T09:31:08.092Z,1.35
2022-12-23T09:36:09.955Z,1.45
2022-12-23T09:41:34.054Z,1.51
2022-12-23T09:46:35.997Z,1.55
2022-12-23T09:51:37.899Z,1.48
2022-12-23T09:56:52.937Z,1.64
2022-12-23T10:02:31.747Z,1.53
2022-12-23T10:07:37.617Z,1.67
2022-12-23T10:12:41.170Z,1.62
2022-12-23T10:17:42.995Z,1.63
2022-12-23T10:22:45.129Z,1.71
2022-12-23T10:27:46.920Z,1.62
2022-12-23T10:33:06.727Z,1.61
2022-12-23T10:38:18.132Z,1.58
2022-12-23T10:43:42.787Z,1.55
2022-12-23T10:48:50.297Z,1.64
2022-12-23T10:54:02.325Z,1.60
2022-12-23T10:59:04.089Z,1.59
2022-12-23T11:04:19.454Z,1.57
2022-12-23T11:09:37.088Z,1.58
2022-12-23T11:14:41.394Z,1.62
2022-12-23T11:19:43.130Z,1.51
2022-12-23T11:24:45.000Z,1.50
2022-12-23T11:29:51.690Z,1.53
2022-12-23T11:34:54.233Z,1.42
2022-12-23T11:39:56.057Z,1.46
2022-12-23T11:44:58.933Z,1.43
2022-12-23T11:50:02.309Z,1.47
2022-12-23T11:55:06.349Z,1.44
2022-12-23T12:00:19.547Z,1.37
2022-12-23T12:05:25.701Z,1.36
2022-12-23T12:10:29.098Z,1.35
2022-12-23T12:15:44.079Z,1.38
2022-12-23T12:20:47.938Z,1.31
2022-12-23T12:26:13.065Z,1.37
2022-12-23T12:31:22.239Z,1.42
2022-12-23T12:36:45.727Z,1.35
2022-12-23T12:42:09.526Z,1.34
2022-12-23T12:47:52.141Z,1.25
2022-12-23T12:52:43.386Z,1.28
2022-12-23T12:57:45.363Z,1.27
2022-12-23T13:03:28.352Z,1.32
2022-12-23T13:08:52.558Z,1.29
2022-12-23T13:14:06.236Z,1.23
2022-12-23T13:19:32.519Z,1.31
2022-12-23T13:24:46.398Z,1.27
2022-12-23T13:30:04.975Z,1.21
2022-12-23T13:35:12.861Z,1.30
2022-12-23T13:40:37.899Z,1.36
2022-12-23T13:45:39.885Z,1.34
2022-12-23T13:50:46.204Z,1.30
2022-12-23T13:56:03.693Z,1.33
2022-12-23T14:01:08.469Z,1.31
2022-12-23T14:06:25.480Z,1.38
2022-12-23T14:11:27.623Z,1.39
2022-12-23T14:16:59.864Z,1.42
2022-12-23T14:22:07.367Z,1.33
2022-12-23T14:27:27.058Z,1.39
2022-12-23T14:32:30.455Z,1.36
2022-12-23T14:37:34.415Z,1.39
2022-12-23T14:42:45.060Z,1.34
2022-12-23T14:47:46.841Z,1.30
2022-12-23T14:52:52.041Z,1.33
2022-12-23T14:58:04.411Z,1.31
2022-12-23T15:03:09.474Z,1.29
2022-12-23T15:08:28.985Z,1.32
2022-12-23T15:13:30.843Z,1.32
2022-12-23T15:18:32.648Z,1.33
2022-12-23T15:23:35.324Z,1.33
2022-12-23T15:28:37.685Z,1.30
2022-12-23T15:39:01.315Z,1.40
2022-12-23T15:44:03.137Z,1.34
2022-12-23T15:49:10.723Z,1.35
2022-12-23T15:54:26.542Z,1.27
2022-12-23T15:59:32.339Z,1.40
2022-12-23T16:04:34.265Z,1.43
2022-12-23T16:09:36.377Z,1.37
2022-12-23T16:14:41.644Z,1.38
2022-12-23T16:19:50.240Z,1.40
2022-12-23T16:25:04.103Z,1.34
2022-12-23T16:30:19.913Z,1.33
2022-12-23T16:35:41.384Z,1.34
2022-12-23T16:40:44.287Z,1.29
2022-12-23T16:45:47.073Z,1.30
2022-12-23T16:50:48.898Z,1.22
2022-12-23T16:55:56.684Z,1.21
2022-12-23T17:01:01.961Z,1.19
2022-12-23T17:06:03.866Z,1.19
2022-12-23T17:11:06.577Z,1.23
2022-12-23T17:16:26.402Z,1.24
2022-12-23T17:21:32.652Z,1.17
2022-12-23T17:26:34.556Z,1.18
2022-12-23T17:31:36.479Z,1.07
2022-12-23T17:36:41.922Z,1.03
2022-12-23T17:41:46.504Z,1.02
2022-12-23T17:46:48.484Z,1.04
2022-12-23T17:51:50.356Z,1.16
2022-12-23T17:56:52.752Z,1.03
2022-12-23T18:01:55.104Z,1.10
2022-12-23T18:06:56.956Z,1.18
2022-12-23T18:11:58.735Z,1.13
2022-12-23T18:17:00.663Z,1.10
2022-12-23T18:22:02.594Z,1.11
2022-12-23T18:27:11.610Z,1.04
2022-12-23T18:32:19.922Z,1.05
2022-12-23T18:37:23.286Z,1.12
2022-12-23T18:42:25.787Z,1.09
2022-12-23T18:47:27.815Z,1.18
2022-12-23T18:52:29.748Z,1.21
2022-12-23T18:57:31.612Z,1.16
2022-12-23T19:02:33.500Z,1.13
2022-12-23T19:07:35.434Z,1.18
2022-12-23T19:12:37.766Z,1.21
2022-12-23T19:17:39.781Z,1.25
2022-12-23T19:22:41.688Z,1.33
2022-12-23T19:27:43.754Z,1.30
2022-12-23T19:32:45.632Z,1.22
2022-12-23T19:37:47.455Z,1.31
2022-12-23T19:42:49.313Z,1.33
2022-12-23T19:47:51.142Z,1.25
2022-12-23T19:52:53.051Z,1.32
2022-12-23T19:57:56.381Z,1.27
2022-12-23T20:02:59.253Z,1.35
2022-12-23T20:08:01.455Z,1.35
2022-12-23T20:13:03.449Z,1.36
2022-12-23T20:18:05.358Z,1.40
2022-12-23T20:23:07.160Z,1.36
2022-12-23T20:28:08.893Z,1.31
2022-12-23T20:33:10.742Z,1.37
2022-12-23T20:38:12.678Z,1.40
2022-12-23T20:43:15.415Z,1.38
2022-12-23T20:48:17.610Z,1.38
2022-12-23T20:53:19.438Z,1.35
2022-12-23T20:58:21.280Z,1.38
2022-12-23T21:03:23.280Z,1.44
2022-12-23T21:08:25.245Z,1.49
2022-12-23T21:13:27.088Z,1.54
2022-12-23T21:18:28.947Z,1.51
2022-12-23T21:23:30.999Z,1.45
2022-12-23T21:28:32.948Z,1.49
2022-12-23T21:33:39.006Z,1.56
2022-12-23T21:38:41.684Z,1.49
2022-12-23T21:43:43.413Z,1.52
2022-12-23T21:48:45.224Z,1.57
2022-12-23T21:53:48.721Z,1.50
2022-12-23T21:58:50.949Z,1.53
2022-12-23T22:03:53.137Z,1.53
2022-12-23T22:08:55.092Z,1.58
2022-12-23T22:13:57.784Z,1.57
2022-12-23T22:19:00.314Z,1.63
2022-12-23T22:24:02.455Z,1.61
2022-12-23T22:29:05.248Z,1.63
2022-12-23T22:34:07.534Z,1.65
2022-12-23T22:39:17.620Z,1.58
2022-12-23T22:44:21.796Z,1.59
2022-12-23T22:49:24.015Z,1.70
2022-12-23T22:54:25.962Z,1.66
2022-12-23T22:59:27.839Z,1.69
2022-12-23T23:04:29.699Z,1.72
2022-12-23T23:09:31.471Z,1.62
2022-12-23T23:14:33.566Z,1.62
2022-12-23T23:19:35.431Z,1.64
2022-12-23T23:24:37.235Z,1.72
2022-12-23T23:29:39.200Z,1.72
2022-12-23T23:34:41.048Z,1.69
2022-12-23T23:39:42.981Z,1.72
2022-12-23T23:44:44.899Z,1.60
2022-12-23T23:49:46.861Z,1.56
2022-12-23T23:54:48.713Z,1.57
2022-12-23T23:59:50.554Z,1.50
